• Join FlightAware (Why Join?)
  • Login
  • US Flag 
Rudolph Flight #1: Arrived! 
01:32AM EST


 

Airport Tracker/Info


-or-


 

Live Flight TrackerFlight Track Log ✈ SWA3587 ✈ 06-Mar-2014 ✈ KPHX - KSAN

Flight Track Log - Related Links

Times and Time Zones

All times are in EST time to prevent confusion due to time zone crossing. See the SWA3587 flight status page for this flight to view local times or setup timezone preferences in your user account.

Time Position Orientation Groundspeed Altitude Reporting Facility
EST Latitude Longitude Course Direction KTS MPH feet Rate Location/Type
08:49AM 33.4333 -112.0000 90° East 149 171 1,900  Level Phoenix TRACON
08:50AM 33.4333 -111.9500 90° East 201 231 4,000 2,340 Climbing Phoenix TRACON
08:51AM 33.4333 -111.8667 90° East 259 298 6,400 2,580 Climbing Phoenix TRACON
08:52AM 33.3881 -111.8447 158° South 282 325 8,500 3,000 Climbing Albuquerque Center
08:53AM 33.3372 -111.9203 231° Southwest 295 339 11,700 3,420 Climbing Albuquerque Center
08:54AM 33.2872 -112.0200 239° Southwest 344 396 15,500 3,660 Climbing Albuquerque Center
08:55AM 33.2344 -112.1242 239° Southwest 362 417 19,200 3,420 Climbing Albuquerque Center
08:56AM 33.1803 -112.2311 239° Southwest 374 430 22,500 2,820 Climbing Albuquerque Center
08:57AM 33.1211 -112.3486 239° Southwest 394 453 24,900 2,100 Climbing Albuquerque Center
08:58AM 33.0628 -112.4653 239° Southwest 408 470 26,800 2,940 Climbing Albuquerque Center
08:59AM 33.0053 -112.5778 239° Southwest 397 457 30,900 2,520 Climbing Albuquerque Center
09:00AM 32.9558 -112.6836 241° Southwest 372 428 32,000 540 Climbing Albuquerque Center
09:01AM 32.9406 -112.7989 261° West 353 406 32,000  Level Albuquerque Center
09:02AM 32.9242 -112.9167 261° West 359 413 32,000  Level Albuquerque Center
09:03AM 32.9083 -113.0339 261° West 361 415 32,000  Level Albuquerque Center
09:04AM 32.8883 -113.1742 260° West 362 417 32,000 -300 Level Albuquerque Center
09:05AM 32.8728 -113.2900 261° West 360 414 31,400 -840 Descending Albuquerque Center
09:06AM 32.8567 -113.4092 261° West 364 419 30,400 -720 Descending Albuquerque Center
09:07AM 32.8392 -113.5286 260° West 368 423 30,000 -240 Descending Albuquerque Center
09:08AM 32.8222 -113.6472 260° West 368 423 30,000  Level Albuquerque Center
09:09AM 32.8053 -113.7667 260° West 368 423 30,000  Level Albuquerque Center
09:10AM 32.7881 -113.8861 260° West 368 423 30,000  Level Albuquerque Center
09:11AM 32.7736 -114.0069 262° West 370 426 30,000 -180 Level Albuquerque Center
09:12AM 32.7739 -114.1275 270° West 367 422 29,700 -720 Descending Albuquerque Center
09:13AM 32.7736 -114.2469 270° West 365 420 28,600 -1,140 Descending Albuquerque Center
09:14AM 32.7714 -114.3786 269° West 353 406 27,500 -1,080 Descending Los Angeles Center
09:15AM 32.7706 -114.4917 270° West 344 396 26,500 -1,020 Descending Los Angeles Center
09:16AM 32.7694 -114.6033 269° West 340 391 25,500 -1,080 Descending Los Angeles Center
09:17AM 32.7647 -114.7147 267° West 339 390 24,400 -780 Descending Los Angeles Center
09:18AM 32.7644 -114.8258 270° West 337 388 24,000 -240 Descending Los Angeles Center
09:19AM 32.7628 -114.9375 269° West 339 390 24,000  Level Los Angeles Center
09:20AM 32.7594 -115.0497 268° West 338 389 24,000  Level Los Angeles Center
09:21AM 32.7564 -115.1600 268° West 336 387 24,000  Level Los Angeles Center
09:22AM 32.7561 -115.2719 270° West 338 389 24,000  Level Los Angeles Center
09:23AM 32.7542 -115.3800 269° West 331 381 24,000  Level Los Angeles Center
09:24AM 32.7525 -115.4897 269° West 333 383 24,000  Level Los Angeles Center
09:25AM 32.7503 -115.6211 269° West 333 383 24,000 -60 Level Los Angeles Center
09:26AM 32.7489 -115.7303 269° West 331 381 23,900 -1,020 Descending Los Angeles Center
09:27AM 32.7469 -115.8381 269° West 329 379 22,000 -1,920 Descending Los Angeles Center
09:28AM 32.7458 -115.9425 269° West 321 369 20,100 -1,920 Descending Los Angeles Center
09:29AM 32.7436 -116.0511 269° West 325 374 18,100 -2,040 Descending Los Angeles Center
09:30AM 32.7417 -116.1586 269° West 326 375 16,000 -1,980 Descending Los Angeles Center
09:31AM 32.7394 -116.2644 269° West 321 369 14,100 -1,920 Descending Los Angeles Center
09:32AM 32.7381 -116.3706 269° West 319 367 12,100 -1,980 Descending Los Angeles Center
09:33AM 32.7356 -116.4736 268° West 313 360 10,100 -1,140 Descending Los Angeles Center
09:34AM 32.7261 -116.5653 263° West 277 319 9,800 -840 Descending Los Angeles Center
09:35AM 32.7142 -116.6472 260° West 254 292 8,500 -1,320 Descending Los Angeles Center
09:36AM 32.7100 -116.7319 267° West 255 293 7,200 -1,200 Descending Los Angeles Center
09:37AM 32.7072 -116.8122 268° West 248 285 6,100 -1,140 Descending Los Angeles Center
09:38AM 32.6861 -116.8875 252° West 245 282 4,900 -780 Descending Los Angeles Center
09:39AM 32.6667 -116.9333 243° Southwest 207 238 4,800 -780 Descending Southern California TRACON
09:40AM 32.6833 -116.9833 292° West 178 205 3,800 -1,140 Descending Southern California TRACON
09:41AM 32.7000 -117.0500 287° West 162 186 2,700 -960 Descending Southern California TRACON
09:42AM 32.7167 -117.0833 301° West 137 158 1,800 -900 Descending Southern California TRACON
09:43AM 32.7167 -117.1333 270° West 132 152 1,100 -840 Descending Southern California TRACON
09:44AM 32.7250 -117.1522 298° West 134 154 600 -480 Descending Los Angeles Center
09:45AM 32.7347 -117.1903 287° West 134 154 300 -300 Descending Los Angeles Center
09:47AM 32.7333 -117.1833 North  Level FlightAware Approximate